sensor_id;sensor_type;location;lat;lon;timestamp;P1;durP1;ratioP1;P2;durP2;ratioP2
63259;SDS011;49390;51.380;0.098;2023-10-13T00:04:20;2.58;;;1.25;;
63259;SDS011;49390;51.380;0.098;2023-10-13T00:06:52;2.50;;;1.25;;
63259;SDS011;49390;51.380;0.098;2023-10-13T00:09:20;3.50;;;1.55;;
63259;SDS011;49390;51.380;0.098;2023-10-13T00:11:53;1.48;;;1.15;;
63259;SDS011;49390;51.380;0.098;2023-10-13T00:14:21;2.00;;;1.23;;
63259;SDS011;49390;51.380;0.098;2023-10-13T00:16:49;2.80;;;1.40;;
63259;SDS011;49390;51.380;0.098;2023-10-13T00:19:36;1.80;;;1.10;;
63259;SDS011;49390;51.380;0.098;2023-10-13T00:22:06;1.63;;;1.00;;
63259;SDS011;49390;51.380;0.098;2023-10-13T00:24:39;3.38;;;1.20;;
63259;SDS011;49390;51.380;0.098;2023-10-13T00:27:19;1.80;;;0.90;;
63259;SDS011;49390;51.380;0.098;2023-10-13T00:29:58;2.22;;;0.90;;
63259;SDS011;49390;51.380;0.098;2023-10-13T00:32:47;0.60;;;0.60;;
63259;SDS011;49390;51.380;0.098;2023-10-13T00:35:23;1.52;;;0.80;;
63259;SDS011;49390;51.380;0.098;2023-10-13T00:38:05;1.08;;;0.77;;
63259;SDS011;49390;51.380;0.098;2023-10-13T00:40:45;2.63;;;1.00;;
63259;SDS011;49390;51.380;0.098;2023-10-13T00:43:20;1.67;;;1.00;;
63259;SDS011;49390;51.380;0.098;2023-10-13T00:45:52;1.15;;;0.80;;
63259;SDS011;49390;51.380;0.098;2023-10-13T00:48:26;1.63;;;1.00;;
63259;SDS011;49390;51.380;0.098;2023-10-13T00:50:57;1.27;;;0.82;;
63259;SDS011;49390;51.380;0.098;2023-10-13T00:53:30;3.30;;;1.02;;
63259;SDS011;49390;51.380;0.098;2023-10-13T00:56:01;1.48;;;1.30;;
63259;SDS011;49390;51.380;0.098;2023-10-13T00:58:34;1.70;;;0.90;;
63259;SDS011;49390;51.380;0.098;2023-10-13T01:01:03;3.50;;;0.98;;
63259;SDS011;49390;51.380;0.098;2023-10-13T01:03:52;2.63;;;0.85;;
63259;SDS011;49390;51.380;0.098;2023-10-13T01:06:27;1.70;;;0.98;;
63259;SDS011;49390;51.380;0.098;2023-10-13T01:11:40;0.55;;;0.55;;
63259;SDS011;49390;51.380;0.098;2023-10-13T01:14:11;0.82;;;0.70;;
63259;SDS011;49390;51.380;0.098;2023-10-13T01:16:39;0.47;;;0.47;;
63259;SDS011;49390;51.380;0.098;2023-10-13T01:19:12;0.50;;;0.50;;
63259;SDS011;49390;51.380;0.098;2023-10-13T01:21:41;1.55;;;1.00;;
63259;SDS011;49390;51.380;0.098;2023-10-13T01:24:09;1.40;;;0.75;;
63259;SDS011;49390;51.380;0.098;2023-10-13T01:26:40;2.25;;;1.27;;
63259;SDS011;49390;51.380;0.098;2023-10-13T01:29:10;2.35;;;1.13;;
63259;SDS011;49390;51.380;0.098;2023-10-13T01:31:41;3.70;;;1.60;;
63259;SDS011;49390;51.380;0.098;2023-10-13T01:34:15;3.90;;;2.00;;
63259;SDS011;49390;51.380;0.098;2023-10-13T01:36:53;5.70;;;2.13;;
63259;SDS011;49390;51.380;0.098;2023-10-13T01:39:23;6.50;;;2.60;;
63259;SDS011;49390;51.380;0.098;2023-10-13T01:41:56;7.75;;;2.92;;
63259;SDS011;49390;51.380;0.098;2023-10-13T01:44:28;11.00;;;3.40;;
63259;SDS011;49390;51.380;0.098;2023-10-13T01:46:58;9.95;;;3.00;;
63259;SDS011;49390;51.380;0.098;2023-10-13T01:49:27;7.13;;;3.38;;
63259;SDS011;49390;51.380;0.098;2023-10-13T01:51:56;7.40;;;3.88;;
63259;SDS011;49390;51.380;0.098;2023-10-13T01:54:24;9.48;;;4.18;;
63259;SDS011;49390;51.380;0.098;2023-10-13T01:56:52;6.97;;;3.28;;
63259;SDS011;49390;51.380;0.098;2023-10-13T01:59:21;9.00;;;4.00;;
63259;SDS011;49390;51.380;0.098;2023-10-13T02:01:50;8.70;;;3.72;;
63259;SDS011;49390;51.380;0.098;2023-10-13T02:04:19;10.32;;;4.30;;
63259;SDS011;49390;51.380;0.098;2023-10-13T02:06:49;10.73;;;4.40;;
63259;SDS011;49390;51.380;0.098;2023-10-13T02:09:17;10.40;;;4.30;;
63259;SDS011;49390;51.380;0.098;2023-10-13T02:11:53;9.18;;;4.38;;
63259;SDS011;49390;51.380;0.098;2023-10-13T02:14:22;9.95;;;4.57;;
63259;SDS011;49390;51.380;0.098;2023-10-13T02:16:53;11.63;;;4.38;;
63259;SDS011;49390;51.380;0.098;2023-10-13T02:19:40;10.23;;;3.95;;
63259;SDS011;49390;51.380;0.098;2023-10-13T02:22:13;14.85;;;4.22;;
63259;SDS011;49390;51.380;0.098;2023-10-13T02:24:57;9.77;;;4.45;;
63259;SDS011;49390;51.380;0.098;2023-10-13T02:27:34;9.93;;;4.95;;
63259;SDS011;49390;51.380;0.098;2023-10-13T02:30:09;13.63;;;4.80;;
63259;SDS011;49390;51.380;0.098;2023-10-13T02:32:50;10.82;;;4.45;;
63259;SDS011;49390;51.380;0.098;2023-10-13T02:35:21;10.05;;;4.43;;
63259;SDS011;49390;51.380;0.098;2023-10-13T02:37:57;9.98;;;4.65;;
63259;SDS011;49390;51.380;0.098;2023-10-13T02:40:35;8.82;;;3.85;;
63259;SDS011;49390;51.380;0.098;2023-10-13T02:43:03;9.40;;;4.30;;
63259;SDS011;49390;51.380;0.098;2023-10-13T02:45:35;12.10;;;4.80;;
63259;SDS011;49390;51.380;0.098;2023-10-13T02:48:04;10.40;;;4.47;;
63259;SDS011;49390;51.380;0.098;2023-10-13T02:50:54;14.88;;;5.20;;
63259;SDS011;49390;51.380;0.098;2023-10-13T02:53:29;12.25;;;5.32;;
63259;SDS011;49390;51.380;0.098;2023-10-13T02:55:59;12.80;;;5.15;;
63259;SDS011;49390;51.380;0.098;2023-10-13T02:58:33;11.57;;;4.93;;
63259;SDS011;49390;51.380;0.098;2023-10-13T03:01:11;14.95;;;5.63;;
63259;SDS011;49390;51.380;0.098;2023-10-13T03:03:46;15.77;;;5.55;;
63259;SDS011;49390;51.380;0.098;2023-10-13T03:06:22;17.35;;;6.00;;
63259;SDS011;49390;51.380;0.098;2023-10-13T03:09:02;14.82;;;5.57;;
63259;SDS011;49390;51.380;0.098;2023-10-13T03:11:42;12.80;;;5.40;;
63259;SDS011;49390;51.380;0.098;2023-10-13T03:14:21;16.27;;;5.60;;
63259;SDS011;49390;51.380;0.098;2023-10-13T03:17:00;15.38;;;5.95;;
63259;SDS011;49390;51.380;0.098;2023-10-13T03:19:32;14.27;;;6.13;;
63259;SDS011;49390;51.380;0.098;2023-10-13T03:22:02;15.40;;;5.75;;
63259;SDS011;49390;51.380;0.098;2023-10-13T03:24:41;18.25;;;6.63;;
63259;SDS011;49390;51.380;0.098;2023-10-13T03:27:15;18.23;;;6.43;;
63259;SDS011;49390;51.380;0.098;2023-10-13T03:29:45;14.57;;;6.00;;
63259;SDS011;49390;51.380;0.098;2023-10-13T03:32:22;16.95;;;6.55;;
63259;SDS011;49390;51.380;0.098;2023-10-13T03:34:54;17.67;;;7.00;;
63259;SDS011;49390;51.380;0.098;2023-10-13T03:37:40;16.55;;;6.72;;
63259;SDS011;49390;51.380;0.098;2023-10-13T03:40:09;15.43;;;6.55;;
63259;SDS011;49390;51.380;0.098;2023-10-13T03:42:44;16.58;;;6.63;;
63259;SDS011;49390;51.380;0.098;2023-10-13T03:45:25;19.77;;;6.60;;
63259;SDS011;49390;51.380;0.098;2023-10-13T03:47:53;14.57;;;6.53;;
63259;SDS011;49390;51.380;0.098;2023-10-13T03:50:22;14.65;;;6.50;;
63259;SDS011;49390;51.380;0.098;2023-10-13T03:53:00;13.98;;;5.65;;
63259;SDS011;49390;51.380;0.098;2023-10-13T03:55:27;13.05;;;5.93;;
63259;SDS011;49390;51.380;0.098;2023-10-13T03:57:57;13.32;;;6.50;;
63259;SDS011;49390;51.380;0.098;2023-10-13T04:00:27;13.52;;;5.80;;
63259;SDS011;49390;51.380;0.098;2023-10-13T04:02:55;13.57;;;6.10;;
63259;SDS011;49390;51.380;0.098;2023-10-13T04:05:44;13.55;;;5.97;;
63259;SDS011;49390;51.380;0.098;2023-10-13T04:08:29;13.35;;;5.80;;
63259;SDS011;49390;51.380;0.098;2023-10-13T04:10:57;11.27;;;5.40;;
63259;SDS011;49390;51.380;0.098;2023-10-13T04:13:25;12.40;;;5.43;;
63259;SDS011;49390;51.380;0.098;2023-10-13T04:16:11;10.85;;;5.15;;
63259;SDS011;49390;51.380;0.098;2023-10-13T04:19:03;12.30;;;5.60;;
63259;SDS011;49390;51.380;0.098;2023-10-13T04:21:30;13.23;;;5.72;;
63259;SDS011;49390;51.380;0.098;2023-10-13T04:24:23;15.48;;;5.97;;
63259;SDS011;49390;51.380;0.098;2023-10-13T04:27:04;13.20;;;5.90;;
63259;SDS011;49390;51.380;0.098;2023-10-13T04:29:38;15.43;;;5.32;;
63259;SDS011;49390;51.380;0.098;2023-10-13T04:32:27;14.50;;;5.65;;
63259;SDS011;49390;51.380;0.098;2023-10-13T04:35:00;15.55;;;5.55;;
63259;SDS011;49390;51.380;0.098;2023-10-13T04:37:57;16.23;;;6.05;;
63259;SDS011;49390;51.380;0.098;2023-10-13T04:40:29;11.63;;;5.40;;
63259;SDS011;49390;51.380;0.098;2023-10-13T04:43:03;11.88;;;5.38;;
63259;SDS011;49390;51.380;0.098;2023-10-13T04:45:53;11.85;;;5.18;;
63259;SDS011;49390;51.380;0.098;2023-10-13T04:48:42;13.95;;;5.60;;
63259;SDS011;49390;51.380;0.098;2023-10-13T04:51:17;14.38;;;5.25;;
63259;SDS011;49390;51.380;0.098;2023-10-13T04:54:05;13.20;;;5.22;;
63259;SDS011;49390;51.380;0.098;2023-10-13T04:56:53;14.60;;;5.65;;
63259;SDS011;49390;51.380;0.098;2023-10-13T04:59:41;15.45;;;5.20;;
63259;SDS011;49390;51.380;0.098;2023-10-13T05:02:27;13.55;;;5.63;;
63259;SDS011;49390;51.380;0.098;2023-10-13T05:05:08;13.10;;;5.75;;
63259;SDS011;49390;51.380;0.098;2023-10-13T05:07:46;15.75;;;6.07;;
63259;SDS011;49390;51.380;0.098;2023-10-13T05:10:35;14.75;;;5.40;;
63259;SDS011;49390;51.380;0.098;2023-10-13T05:13:22;17.60;;;5.70;;
63259;SDS011;49390;51.380;0.098;2023-10-13T05:16:09;14.20;;;5.40;;
63259;SDS011;49390;51.380;0.098;2023-10-13T05:18:55;16.00;;;5.93;;
63259;SDS011;49390;51.380;0.098;2023-10-13T05:21:42;16.50;;;5.93;;
63259;SDS011;49390;51.380;0.098;2023-10-13T05:24:29;14.65;;;5.47;;
63259;SDS011;49390;51.380;0.098;2023-10-13T05:27:16;18.42;;;6.38;;
63259;SDS011;49390;51.380;0.098;2023-10-13T05:30:02;15.63;;;5.57;;
63259;SDS011;49390;51.380;0.098;2023-10-13T05:32:49;19.98;;;5.93;;
63259;SDS011;49390;51.380;0.098;2023-10-13T05:35:36;15.05;;;6.50;;
63259;SDS011;49390;51.380;0.098;2023-10-13T05:38:22;16.33;;;6.60;;
63259;SDS011;49390;51.380;0.098;2023-10-13T05:41:09;14.95;;;5.78;;
63259;SDS011;49390;51.380;0.098;2023-10-13T05:43:55;14.65;;;5.80;;
63259;SDS011;49390;51.380;0.098;2023-10-13T05:46:42;14.95;;;6.57;;
63259;SDS011;49390;51.380;0.098;2023-10-13T05:49:16;18.23;;;5.55;;
63259;SDS011;49390;51.380;0.098;2023-10-13T05:51:45;15.07;;;6.20;;
63259;SDS011;49390;51.380;0.098;2023-10-13T05:54:25;16.75;;;5.97;;
63259;SDS011;49390;51.380;0.098;2023-10-13T05:57:32;15.07;;;5.68;;
63259;SDS011;49390;51.380;0.098;2023-10-13T06:00:18;18.55;;;5.90;;
63259;SDS011;49390;51.380;0.098;2023-10-13T06:03:05;19.50;;;6.68;;
63259;SDS011;49390;51.380;0.098;2023-10-13T06:05:51;19.35;;;6.82;;
63259;SDS011;49390;51.380;0.098;2023-10-13T06:08:38;20.63;;;6.07;;
63259;SDS011;49390;51.380;0.098;2023-10-13T06:11:25;16.60;;;5.72;;
63259;SDS011;49390;51.380;0.098;2023-10-13T06:14:11;17.98;;;6.38;;
63259;SDS011;49390;51.380;0.098;2023-10-13T06:17:00;13.75;;;5.55;;
63259;SDS011;49390;51.380;0.098;2023-10-13T06:19:47;15.32;;;6.00;;
63259;SDS011;49390;51.380;0.098;2023-10-13T06:22:34;17.33;;;6.20;;
63259;SDS011;49390;51.380;0.098;2023-10-13T06:25:21;19.00;;;5.93;;
63259;SDS011;49390;51.380;0.098;2023-10-13T06:28:10;19.83;;;6.05;;
63259;SDS011;49390;51.380;0.098;2023-10-13T06:30:58;13.05;;;5.75;;
63259;SDS011;49390;51.380;0.098;2023-10-13T06:33:28;19.83;;;7.45;;
63259;SDS011;49390;51.380;0.098;2023-10-13T06:35:57;17.90;;;6.50;;
63259;SDS011;49390;51.380;0.098;2023-10-13T06:38:25;24.20;;;5.95;;
63259;SDS011;49390;51.380;0.098;2023-10-13T06:40:58;20.40;;;5.55;;
63259;SDS011;49390;51.380;0.098;2023-10-13T06:43:26;23.95;;;6.40;;
63259;SDS011;49390;51.380;0.098;2023-10-13T06:46:00;16.58;;;5.70;;
63259;SDS011;49390;51.380;0.098;2023-10-13T06:48:28;17.23;;;5.95;;
63259;SDS011;49390;51.380;0.098;2023-10-13T06:51:02;16.42;;;5.55;;
63259;SDS011;49390;51.380;0.098;2023-10-13T06:53:45;18.83;;;6.47;;
63259;SDS011;49390;51.380;0.098;2023-10-13T06:56:15;22.40;;;6.80;;
63259;SDS011;49390;51.380;0.098;2023-10-13T06:58:49;16.73;;;6.38;;
63259;SDS011;49390;51.380;0.098;2023-10-13T07:01:18;19.05;;;5.88;;
63259;SDS011;49390;51.380;0.098;2023-10-13T07:03:54;18.85;;;5.55;;
63259;SDS011;49390;51.380;0.098;2023-10-13T07:06:29;19.00;;;6.28;;
63259;SDS011;49390;51.380;0.098;2023-10-13T07:08:59;20.20;;;6.68;;
63259;SDS011;49390;51.380;0.098;2023-10-13T07:11:32;20.45;;;6.35;;
63259;SDS011;49390;51.380;0.098;2023-10-13T07:14:01;18.73;;;6.50;;
63259;SDS011;49390;51.380;0.098;2023-10-13T07:17:00;22.08;;;6.65;;
63259;SDS011;49390;51.380;0.098;2023-10-13T07:19:30;16.33;;;6.55;;
63259;SDS011;49390;51.380;0.098;2023-10-13T07:22:00;17.25;;;5.90;;
63259;SDS011;49390;51.380;0.098;2023-10-13T07:24:50;17.23;;;5.32;;
63259;SDS011;49390;51.380;0.098;2023-10-13T07:27:19;18.27;;;6.28;;
63259;SDS011;49390;51.380;0.098;2023-10-13T07:29:51;16.38;;;5.88;;
63259;SDS011;49390;51.380;0.098;2023-10-13T07:32:40;19.88;;;6.47;;
63259;SDS011;49390;51.380;0.098;2023-10-13T07:35:14;18.33;;;5.80;;
63259;SDS011;49390;51.380;0.098;2023-10-13T07:37:46;16.40;;;5.45;;
63259;SDS011;49390;51.380;0.098;2023-10-13T07:42:39;20.38;;;6.45;;
63259;SDS011;49390;51.380;0.098;2023-10-13T07:45:08;16.13;;;6.15;;
63259;SDS011;49390;51.380;0.098;2023-10-13T07:47:40;19.08;;;5.90;;
63259;SDS011;49390;51.380;0.098;2023-10-13T07:50:09;21.85;;;6.00;;
63259;SDS011;49390;51.380;0.098;2023-10-13T07:52:37;21.88;;;6.63;;
63259;SDS011;49390;51.380;0.098;2023-10-13T07:55:09;24.67;;;6.20;;
63259;SDS011;49390;51.380;0.098;2023-10-13T07:57:48;15.93;;;6.10;;
63259;SDS011;49390;51.380;0.098;2023-10-13T08:00:23;16.67;;;6.72;;
63259;SDS011;49390;51.380;0.098;2023-10-13T08:03:11;16.17;;;5.82;;
63259;SDS011;49390;51.380;0.098;2023-10-13T08:05:44;14.45;;;5.43;;
63259;SDS011;49390;51.380;0.098;2023-10-13T08:08:48;19.25;;;6.70;;
63259;SDS011;49390;51.380;0.098;2023-10-13T08:11:27;14.30;;;6.00;;
63259;SDS011;49390;51.380;0.098;2023-10-13T08:14:00;16.23;;;5.88;;
63259;SDS011;49390;51.380;0.098;2023-10-13T08:16:58;15.20;;;6.50;;
63259;SDS011;49390;51.380;0.098;2023-10-13T08:19:34;13.93;;;5.63;;
63259;SDS011;49390;51.380;0.098;2023-10-13T08:22:13;15.23;;;5.80;;
63259;SDS011;49390;51.380;0.098;2023-10-13T08:24:47;15.85;;;6.28;;
63259;SDS011;49390;51.380;0.098;2023-10-13T08:27:18;16.30;;;5.60;;
63259;SDS011;49390;51.380;0.098;2023-10-13T08:30:03;10.60;;;5.25;;
63259;SDS011;49390;51.380;0.098;2023-10-13T08:32:50;11.95;;;5.53;;
63259;SDS011;49390;51.380;0.098;2023-10-13T08:35:27;12.32;;;6.00;;
63259;SDS011;49390;51.380;0.098;2023-10-13T08:38:03;10.90;;;5.95;;
63259;SDS011;49390;51.380;0.098;2023-10-13T08:40:52;12.07;;;5.82;;
63259;SDS011;49390;51.380;0.098;2023-10-13T08:43:43;13.10;;;5.65;;
63259;SDS011;49390;51.380;0.098;2023-10-13T08:46:19;17.15;;;6.53;;
63259;SDS011;49390;51.380;0.098;2023-10-13T08:48:59;13.23;;;6.47;;
63259;SDS011;49390;51.380;0.098;2023-10-13T08:51:42;14.85;;;6.30;;
63259;SDS011;49390;51.380;0.098;2023-10-13T08:54:17;12.32;;;6.38;;
63259;SDS011;49390;51.380;0.098;2023-10-13T08:57:02;17.75;;;7.53;;
63259;SDS011;49390;51.380;0.098;2023-10-13T08:59:49;16.83;;;7.50;;
63259;SDS011;49390;51.380;0.098;2023-10-13T09:02:23;15.43;;;6.40;;
63259;SDS011;49390;51.380;0.098;2023-10-13T09:05:30;11.73;;;6.38;;
63259;SDS011;49390;51.380;0.098;2023-10-13T09:08:09;17.92;;;6.95;;
63259;SDS011;49390;51.380;0.098;2023-10-13T09:10:43;15.10;;;6.75;;
63259;SDS011;49390;51.380;0.098;2023-10-13T09:13:16;13.35;;;6.60;;
63259;SDS011;49390;51.380;0.098;2023-10-13T09:15:48;11.75;;;5.97;;
63259;SDS011;49390;51.380;0.098;2023-10-13T09:18:29;14.75;;;5.93;;
63259;SDS011;49390;51.380;0.098;2023-10-13T09:21:15;12.77;;;5.85;;
63259;SDS011;49390;51.380;0.098;2023-10-13T09:24:15;12.43;;;5.97;;
63259;SDS011;49390;51.380;0.098;2023-10-13T09:27:03;12.32;;;6.38;;
63259;SDS011;49390;51.380;0.098;2023-10-13T09:29:32;12.50;;;6.25;;
63259;SDS011;49390;51.380;0.098;2023-10-13T09:32:06;14.60;;;6.20;;
63259;SDS011;49390;51.380;0.098;2023-10-13T09:34:39;15.30;;;6.72;;
63259;SDS011;49390;51.380;0.098;2023-10-13T09:40:07;15.13;;;6.47;;
63259;SDS011;49390;51.380;0.098;2023-10-13T09:42:52;14.43;;;6.03;;
63259;SDS011;49390;51.380;0.098;2023-10-13T09:45:25;12.93;;;5.85;;
63259;SDS011;49390;51.380;0.098;2023-10-13T09:48:00;11.25;;;5.38;;
63259;SDS011;49390;51.380;0.098;2023-10-13T09:50:36;10.73;;;5.30;;
63259;SDS011;49390;51.380;0.098;2023-10-13T09:53:08;9.73;;;5.15;;
63259;SDS011;49390;51.380;0.098;2023-10-13T09:55:45;8.85;;;4.95;;
63259;SDS011;49390;51.380;0.098;2023-10-13T09:58:16;10.63;;;4.93;;
63259;SDS011;49390;51.380;0.098;2023-10-13T10:00:47;10.27;;;4.73;;
63259;SDS011;49390;51.380;0.098;2023-10-13T10:03:26;10.27;;;4.63;;
63259;SDS011;49390;51.380;0.098;2023-10-13T10:05:58;9.02;;;4.40;;
63259;SDS011;49390;51.380;0.098;2023-10-13T10:08:44;7.43;;;4.45;;
63259;SDS011;49390;51.380;0.098;2023-10-13T10:17:27;8.38;;;4.43;;
63259;SDS011;49390;51.380;0.098;2023-10-13T10:19:57;8.40;;;4.47;;
63259;SDS011;49390;51.380;0.098;2023-10-13T10:22:29;11.63;;;4.97;;
63259;SDS011;49390;51.380;0.098;2023-10-13T10:25:06;7.90;;;4.53;;
63259;SDS011;49390;51.380;0.098;2023-10-13T10:27:56;9.60;;;5.05;;
63259;SDS011;49390;51.380;0.098;2023-10-13T10:32:55;11.27;;;4.80;;
63259;SDS011;49390;51.380;0.098;2023-10-13T10:35:30;10.93;;;4.75;;
63259;SDS011;49390;51.380;0.098;2023-10-13T10:38:13;10.02;;;5.47;;
63259;SDS011;49390;51.380;0.098;2023-10-13T10:43:27;13.23;;;5.55;;
63259;SDS011;49390;51.380;0.098;2023-10-13T10:46:25;10.88;;;5.10;;
63259;SDS011;49390;51.380;0.098;2023-10-13T10:49:03;12.68;;;5.30;;
63259;SDS011;49390;51.380;0.098;2023-10-13T10:51:36;12.30;;;5.45;;
63259;SDS011;49390;51.380;0.098;2023-10-13T10:54:18;11.63;;;5.30;;
63259;SDS011;49390;51.380;0.098;2023-10-13T10:56:49;17.50;;;5.90;;
63259;SDS011;49390;51.380;0.098;2023-10-13T10:59:35;14.52;;;5.20;;
63259;SDS011;49390;51.380;0.098;2023-10-13T11:02:08;13.50;;;5.50;;
63259;SDS011;49390;51.380;0.098;2023-10-13T11:04:42;11.02;;;5.68;;
63259;SDS011;49390;51.380;0.098;2023-10-13T11:07:22;12.63;;;5.95;;
63259;SDS011;49390;51.380;0.098;2023-10-13T11:09:51;12.70;;;5.90;;
63259;SDS011;49390;51.380;0.098;2023-10-13T11:12:34;11.75;;;5.65;;
63259;SDS011;49390;51.380;0.098;2023-10-13T11:15:07;11.25;;;5.72;;
63259;SDS011;49390;51.380;0.098;2023-10-13T11:17:50;11.13;;;5.40;;
63259;SDS011;49390;51.380;0.098;2023-10-13T11:20:22;12.70;;;5.55;;
63259;SDS011;49390;51.380;0.098;2023-10-13T11:22:53;15.40;;;5.97;;
63259;SDS011;49390;51.380;0.098;2023-10-13T11:25:26;14.10;;;6.53;;
63259;SDS011;49390;51.380;0.098;2023-10-13T11:27:58;15.90;;;5.95;;
63259;SDS011;49390;51.380;0.098;2023-10-13T11:30:36;13.00;;;5.43;;
63259;SDS011;49390;51.380;0.098;2023-10-13T11:33:10;14.93;;;6.23;;
63259;SDS011;49390;51.380;0.098;2023-10-13T11:35:45;13.65;;;5.28;;
63259;SDS011;49390;51.380;0.098;2023-10-13T11:41:00;14.18;;;6.38;;
63259;SDS011;49390;51.380;0.098;2023-10-13T11:43:35;17.00;;;6.13;;
63259;SDS011;49390;51.380;0.098;2023-10-13T11:46:11;13.57;;;5.63;;
63259;SDS011;49390;51.380;0.098;2023-10-13T11:48:45;14.68;;;5.22;;
63259;SDS011;49390;51.380;0.098;2023-10-13T11:51:15;14.60;;;5.32;;
63259;SDS011;49390;51.380;0.098;2023-10-13T11:53:54;12.55;;;4.90;;
63259;SDS011;49390;51.380;0.098;2023-10-13T11:56:24;13.80;;;5.00;;
63259;SDS011;49390;51.380;0.098;2023-10-13T12:01:29;18.15;;;5.00;;
63259;SDS011;49390;51.380;0.098;2023-10-13T12:04:29;13.13;;;4.68;;
63259;SDS011;49390;51.380;0.098;2023-10-13T12:07:00;12.35;;;4.20;;
63259;SDS011;49390;51.380;0.098;2023-10-13T12:09:48;13.68;;;3.90;;
63259;SDS011;49390;51.380;0.098;2023-10-13T12:12:24;12.25;;;4.80;;
63259;SDS011;49390;51.380;0.098;2023-10-13T12:14:53;10.40;;;4.45;;
63259;SDS011;49390;51.380;0.098;2023-10-13T12:17:32;16.23;;;4.50;;
63259;SDS011;49390;51.380;0.098;2023-10-13T12:20:04;13.55;;;4.32;;
63259;SDS011;49390;51.380;0.098;2023-10-13T12:22:37;13.10;;;3.85;;
63259;SDS011;49390;51.380;0.098;2023-10-13T12:25:19;12.30;;;3.60;;
63259;SDS011;49390;51.380;0.098;2023-10-13T12:28:01;9.82;;;3.45;;
63259;SDS011;49390;51.380;0.098;2023-10-13T12:30:53;12.48;;;3.83;;
63259;SDS011;49390;51.380;0.098;2023-10-13T12:33:25;16.58;;;3.72;;
63259;SDS011;49390;51.380;0.098;2023-10-13T12:36:07;14.88;;;3.67;;
63259;SDS011;49390;51.380;0.098;2023-10-13T12:38:36;13.65;;;4.03;;
63259;SDS011;49390;51.380;0.098;2023-10-13T12:41:14;10.45;;;3.53;;
63259;SDS011;49390;51.380;0.098;2023-10-13T12:44:06;14.65;;;3.70;;
63259;SDS011;49390;51.380;0.098;2023-10-13T12:46:53;11.88;;;3.70;;
63259;SDS011;49390;51.380;0.098;2023-10-13T12:49:40;14.18;;;3.78;;
63259;SDS011;49390;51.380;0.098;2023-10-13T12:52:15;13.63;;;3.88;;
63259;SDS011;49390;51.380;0.098;2023-10-13T12:54:44;11.88;;;3.58;;
63259;SDS011;49390;51.380;0.098;2023-10-13T12:57:25;14.05;;;4.40;;
63259;SDS011;49390;51.380;0.098;2023-10-13T12:59:57;11.15;;;3.50;;
63259;SDS011;49390;51.380;0.098;2023-10-13T13:02:26;14.50;;;3.78;;
63259;SDS011;49390;51.380;0.098;2023-10-13T13:04:57;14.80;;;3.95;;
63259;SDS011;49390;51.380;0.098;2023-10-13T13:07:33;15.13;;;3.95;;
63259;SDS011;49390;51.380;0.098;2023-10-13T13:10:11;11.07;;;3.28;;
63259;SDS011;49390;51.380;0.098;2023-10-13T13:12:41;13.82;;;3.30;;
63259;SDS011;49390;51.380;0.098;2023-10-13T13:15:10;9.52;;;3.03;;
63259;SDS011;49390;51.380;0.098;2023-10-13T13:17:40;13.27;;;2.92;;
63259;SDS011;49390;51.380;0.098;2023-10-13T13:20:08;13.40;;;3.00;;
63259;SDS011;49390;51.380;0.098;2023-10-13T13:22:58;13.75;;;3.25;;
63259;SDS011;49390;51.380;0.098;2023-10-13T13:25:30;11.13;;;3.40;;
63259;SDS011;49390;51.380;0.098;2023-10-13T13:27:59;13.45;;;3.25;;
63259;SDS011;49390;51.380;0.098;2023-10-13T13:30:32;13.75;;;3.38;;
63259;SDS011;49390;51.380;0.098;2023-10-13T13:33:03;9.75;;;2.95;;
63259;SDS011;49390;51.380;0.098;2023-10-13T13:35:38;9.38;;;3.30;;
63259;SDS011;49390;51.380;0.098;2023-10-13T13:38:10;11.40;;;2.95;;
63259;SDS011;49390;51.380;0.098;2023-10-13T13:40:44;8.43;;;2.92;;
63259;SDS011;49390;51.380;0.098;2023-10-13T13:43:17;8.05;;;2.72;;
63259;SDS011;49390;51.380;0.098;2023-10-13T13:45:59;7.18;;;2.10;;
63259;SDS011;49390;51.380;0.098;2023-10-13T13:48:31;11.07;;;2.75;;
63259;SDS011;49390;51.380;0.098;2023-10-13T13:51:02;8.85;;;2.50;;
63259;SDS011;49390;51.380;0.098;2023-10-13T13:53:33;7.75;;;2.20;;
63259;SDS011;49390;51.380;0.098;2023-10-13T13:56:05;6.90;;;2.75;;
63259;SDS011;49390;51.380;0.098;2023-10-13T13:58:33;8.98;;;2.72;;
63259;SDS011;49390;51.380;0.098;2023-10-13T14:01:02;7.53;;;2.40;;
63259;SDS011;49390;51.380;0.098;2023-10-13T14:03:46;9.50;;;2.60;;
63259;SDS011;49390;51.380;0.098;2023-10-13T14:08:54;13.40;;;2.65;;
63259;SDS011;49390;51.380;0.098;2023-10-13T14:11:25;10.50;;;2.53;;
63259;SDS011;49390;51.380;0.098;2023-10-13T14:14:16;10.70;;;2.67;;
63259;SDS011;49390;51.380;0.098;2023-10-13T14:16:52;12.95;;;2.75;;
63259;SDS011;49390;51.380;0.098;2023-10-13T14:19:21;10.38;;;2.80;;
63259;SDS011;49390;51.380;0.098;2023-10-13T14:21:55;11.00;;;2.97;;
63259;SDS011;49390;51.380;0.098;2023-10-13T14:24:24;11.70;;;2.70;;
63259;SDS011;49390;51.380;0.098;2023-10-13T14:27:01;10.73;;;3.00;;
63259;SDS011;49390;51.380;0.098;2023-10-13T14:29:37;11.18;;;2.58;;
63259;SDS011;49390;51.380;0.098;2023-10-13T14:32:08;9.25;;;2.78;;
63259;SDS011;49390;51.380;0.098;2023-10-13T14:34:46;7.80;;;2.25;;
63259;SDS011;49390;51.380;0.098;2023-10-13T14:37:16;10.70;;;2.70;;
63259;SDS011;49390;51.380;0.098;2023-10-13T14:39:54;9.93;;;2.92;;
63259;SDS011;49390;51.380;0.098;2023-10-13T14:42:25;14.80;;;2.90;;
63259;SDS011;49390;51.380;0.098;2023-10-13T14:44:56;11.68;;;2.88;;
63259;SDS011;49390;51.380;0.098;2023-10-13T14:47:24;8.73;;;2.58;;
63259;SDS011;49390;51.380;0.098;2023-10-13T14:49:53;6.90;;;2.03;;
63259;SDS011;49390;51.380;0.098;2023-10-13T14:52:22;11.25;;;2.83;;
63259;SDS011;49390;51.380;0.098;2023-10-13T14:54:50;11.73;;;2.85;;
63259;SDS011;49390;51.380;0.098;2023-10-13T14:57:23;7.32;;;2.50;;
63259;SDS011;49390;51.380;0.098;2023-10-13T14:59:54;8.25;;;2.53;;
63259;SDS011;49390;51.380;0.098;2023-10-13T15:02:23;7.95;;;2.38;;
63259;SDS011;49390;51.380;0.098;2023-10-13T15:04:52;7.18;;;2.45;;
63259;SDS011;49390;51.380;0.098;2023-10-13T15:07:20;11.80;;;2.78;;
63259;SDS011;49390;51.380;0.098;2023-10-13T15:09:49;10.57;;;3.00;;
63259;SDS011;49390;51.380;0.098;2023-10-13T15:12:18;8.80;;;2.72;;
63259;SDS011;49390;51.380;0.098;2023-10-13T15:17:16;10.00;;;2.63;;
63259;SDS011;49390;51.380;0.098;2023-10-13T15:19:44;9.88;;;2.80;;
63259;SDS011;49390;51.380;0.098;2023-10-13T15:22:12;11.07;;;2.30;;
63259;SDS011;49390;51.380;0.098;2023-10-13T15:24:44;10.57;;;2.95;;
63259;SDS011;49390;51.380;0.098;2023-10-13T15:27:14;10.23;;;2.67;;
63259;SDS011;49390;51.380;0.098;2023-10-13T15:29:42;9.60;;;2.50;;
63259;SDS011;49390;51.380;0.098;2023-10-13T15:32:18;12.15;;;2.70;;
63259;SDS011;49390;51.380;0.098;2023-10-13T15:35:07;11.02;;;3.25;;
63259;SDS011;49390;51.380;0.098;2023-10-13T15:37:40;10.50;;;2.60;;
63259;SDS011;49390;51.380;0.098;2023-10-13T15:40:10;8.90;;;2.60;;
63259;SDS011;49390;51.380;0.098;2023-10-13T15:42:43;9.18;;;2.20;;
63259;SDS011;49390;51.380;0.098;2023-10-13T15:45:13;9.25;;;2.63;;
63259;SDS011;49390;51.380;0.098;2023-10-13T15:47:45;8.02;;;2.40;;
63259;SDS011;49390;51.380;0.098;2023-10-13T15:50:40;8.57;;;2.42;;
63259;SDS011;49390;51.380;0.098;2023-10-13T15:53:09;5.22;;;1.90;;
63259;SDS011;49390;51.380;0.098;2023-10-13T15:55:40;7.38;;;2.40;;
63259;SDS011;49390;51.380;0.098;2023-10-13T15:58:13;9.32;;;2.35;;
63259;SDS011;49390;51.380;0.098;2023-10-13T16:00:43;7.05;;;1.98;;
63259;SDS011;49390;51.380;0.098;2023-10-13T16:03:13;6.13;;;1.73;;
63259;SDS011;49390;51.380;0.098;2023-10-13T16:05:42;8.20;;;2.28;;